Time;durP1;ratioP1;P1;durP2;ratioP2;P2;SDS_P1;SDS_P2;PMS_P1;PMS_P2;Temp;Humidity;BMP_temperature;BMP_pressure;BME280_temperature;BME280_humidity;BME280_pressure;Samples;Min_cycle;Max_cycle;Signal;HPM_P1;HPM_P2
2022/04/04 00:00:42;;;;;;;6.32;2.63;;;2.40;99.90;;;;;;5066839;28;20048;-44
2022/04/04 00:03:08;;;;;;;5.03;2.50;;;2.40;99.90;;;;;;5067776;28;20177;-43
2022/04/04 00:05:34;;;;;;;5.28;2.08;;;2.40;99.90;;;;;;5066640;28;20127;-41
2022/04/04 00:08:00;;;;;;;4.07;2.03;;;2.40;99.90;;;;;;5068510;28;20035;-48
2022/04/04 00:10:26;;;;;;;8.90;2.90;;;2.40;99.90;;;;;;5070119;28;20485;-42
2022/04/04 00:12:51;;;;;;;4.63;2.22;;;2.40;99.90;;;;;;5067448;28;20505;-44
2022/04/04 00:15:17;;;;;;;3.28;1.90;;;2.40;99.90;;;;;;5067331;28;20492;-43
2022/04/04 00:17:45;;;;;;;5.88;2.13;;;2.40;99.90;;;;;;5067263;28;20072;-44
2022/04/04 00:20:11;;;;;;;4.97;2.10;;;2.40;99.90;;;;;;5068514;28;20085;-42
2022/04/04 00:22:37;;;;;;;5.03;2.20;;;2.50;99.90;;;;;;5067266;28;20045;-45
2022/04/04 00:25:04;;;;;;;6.15;2.58;;;2.60;99.90;;;;;;5089816;28;20582;-47
2022/04/04 00:27:30;;;;;;;3.83;2.05;;;2.60;99.90;;;;;;5069817;28;20037;-48
2022/04/04 00:29:56;;;;;;;7.18;2.72;;;2.70;99.90;;;;;;5072764;28;20473;-45
2022/04/04 00:32:22;;;;;;;7.40;2.60;;;2.80;99.90;;;;;;5067565;28;20472;-44
2022/04/04 00:34:47;;;;;;;7.93;2.42;;;2.80;99.90;;;;;;5063834;28;20036;-45
2022/04/04 00:37:13;;;;;;;7.43;2.35;;;2.80;99.90;;;;;;5071211;28;20500;-47
2022/04/04 00:39:40;;;;;;;5.18;2.88;;;2.90;99.90;;;;;;5068409;28;20124;-43
2022/04/04 00:42:06;;;;;;;7.93;3.35;;;2.90;99.90;;;;;;5066180;28;20039;-43
2022/04/04 00:44:32;;;;;;;8.20;3.47;;;2.90;99.90;;;;;;5066567;28;20077;-46
2022/04/04 00:46:58;;;;;;;5.95;3.53;;;2.90;99.90;;;;;;5071973;28;20032;-43
2022/04/04 00:49:24;;;;;;;11.75;4.97;;;2.90;99.90;;;;;;5087994;28;20071;-45
2022/04/04 00:51:50;;;;;;;10.40;4.75;;;3.00;99.90;;;;;;5069112;28;20485;-45
2022/04/04 00:54:15;;;;;;;7.72;4.80;;;3.00;99.90;;;;;;5064351;28;20036;-45
2022/04/04 00:56:41;;;;;;;7.95;4.57;;;3.00;99.90;;;;;;5069760;28;20358;-47
2022/04/04 00:59:10;;;;;;;9.20;5.45;;;3.00;99.90;;;;;;5064547;28;20166;-48
2022/04/04 01:01:36;;;;;;;9.85;5.68;;;3.00;99.90;;;;;;5068839;28;20120;-47
2022/04/04 01:04:02;;;;;;;10.82;5.97;;;3.10;99.90;;;;;;5072165;28;20512;-49
2022/04/04 01:06:27;;;;;;;9.82;5.78;;;3.20;99.90;;;;;;5069439;28;20032;-47
2022/04/04 01:08:53;;;;;;;9.15;5.28;;;3.20;99.90;;;;;;5064070;28;20040;-45
2022/04/04 01:11:19;;;;;;;8.98;6.10;;;3.20;99.90;;;;;;5068079;28;20477;-44
2022/04/04 01:13:48;;;;;;;10.52;5.30;;;3.30;99.90;;;;;;5070238;28;20101;-45
2022/04/04 01:16:14;;;;;;;9.35;5.45;;;3.30;99.90;;;;;;5066799;28;20040;-46
2022/04/04 01:18:40;;;;;;;9.73;5.15;;;3.30;99.90;;;;;;5073304;28;20404;-45
2022/04/04 01:21:06;;;;;;;9.10;5.20;;;3.30;99.90;;;;;;5068516;28;20032;-48
2022/04/04 01:23:51;;;;;;;9.68;5.05;;;3.30;99.90;;;;;;5066819;28;20548;-42
2022/04/04 01:26:19;;;;;;;9.30;5.10;;;3.40;99.90;;;;;;5067972;28;20047;-50
2022/04/04 01:28:45;;;;;;;7.82;4.70;;;3.30;99.90;;;;;;5070876;28;20036;-47
2022/04/04 01:31:10;;;;;;;8.60;5.22;;;3.30;99.90;;;;;;5069722;28;20498;-47
2022/04/04 01:33:37;;;;;;;8.82;4.70;;;3.30;99.90;;;;;;5068022;28;20467;-47
2022/04/04 01:36:03;;;;;;;7.22;4.50;;;3.30;99.90;;;;;;5062600;28;20040;-42
2022/04/04 01:38:29;;;;;;;7.45;4.22;;;3.30;99.90;;;;;;5069188;28;20500;-44
2022/04/04 01:40:55;;;;;;;8.65;4.78;;;3.30;99.90;;;;;;5067684;28;20037;-42
2022/04/04 01:43:21;;;;;;;10.65;4.68;;;3.30;99.90;;;;;;5068174;28;20052;-49
2022/04/04 01:48:37;;;;;;;8.05;4.70;;;3.30;99.90;;;;;;5071093;28;20040;-46
2022/04/04 01:51:04;;;;;;;8.68;3.85;;;3.40;99.90;;;;;;5085895;28;20036;-46
2022/04/04 01:53:31;;;;;;;7.35;4.63;;;3.40;99.90;;;;;;5072053;28;20114;-41
2022/04/04 01:56:03;;;;;;;7.95;4.30;;;3.40;99.90;;;;;;5068692;28;20037;-47
2022/04/04 01:58:30;;;;;;;11.30;4.60;;;3.40;99.90;;;;;;5067006;28;20481;-43
2022/04/04 02:00:58;;;;;;;9.45;5.20;;;3.40;99.90;;;;;;5069237;28;20032;-47
2022/04/04 02:03:25;;;;;;;9.30;5.53;;;3.40;99.90;;;;;;5068061;28;20053;-44
2022/04/04 02:05:51;;;;;;;12.77;5.25;;;3.40;99.90;;;;;;5064479;28;20055;-46
2022/04/04 02:08:17;;;;;;;12.57;5.65;;;3.40;99.90;;;;;;5068668;28;20044;-45
2022/04/04 02:10:44;;;;;;;9.35;5.25;;;3.50;99.90;;;;;;5070647;28;20062;-47
2022/04/04 02:13:10;;;;;;;12.18;6.13;;;3.60;99.90;;;;;;5070544;28;20320;-44
2022/04/04 02:15:36;;;;;;;10.25;6.00;;;3.60;99.90;;;;;;5072677;28;20044;-48
2022/04/04 02:18:02;;;;;;;9.88;5.63;;;3.60;99.90;;;;;;5070610;28;20506;-49
2022/04/04 02:20:28;;;;;;;12.07;7.57;;;3.70;99.90;;;;;;5068334;28;20112;-46
2022/04/04 02:22:53;;;;;;;11.40;6.13;;;3.80;99.90;;;;;;5066560;28;20393;-46
2022/04/04 02:25:19;;;;;;;12.43;5.72;;;3.80;99.90;;;;;;5070194;28;20044;-46
2022/04/04 02:27:44;;;;;;;19.08;5.88;;;3.80;99.90;;;;;;5069306;28;20043;-42
2022/04/04 02:30:11;;;;;;;13.75;6.82;;;3.80;99.90;;;;;;5068548;28;22105;-45
2022/04/04 02:32:36;;;;;;;13.13;6.53;;;3.80;99.90;;;;;;5069524;28;20466;-47
2022/04/04 02:35:03;;;;;;;12.27;6.82;;;3.80;99.90;;;;;;5069661;28;20039;-47
2022/04/04 02:37:29;;;;;;;11.48;6.35;;;3.90;99.90;;;;;;5074009;28;20041;-40
2022/04/04 02:39:56;;;;;;;11.40;6.38;;;3.90;99.90;;;;;;5074336;28;21558;-45
2022/04/04 02:42:22;;;;;;;13.15;6.65;;;3.90;99.90;;;;;;5071442;28;20087;-46
2022/04/04 02:44:47;;;;;;;9.65;5.85;;;4.00;99.90;;;;;;5070226;28;20097;-45
2022/04/04 02:47:13;;;;;;;14.55;5.72;;;4.00;99.90;;;;;;5069235;28;20037;-43
2022/04/04 02:49:38;;;;;;;11.63;6.07;;;4.00;99.90;;;;;;5077430;28;20478;-46
2022/04/04 02:52:05;;;;;;;10.80;5.80;;;4.00;99.90;;;;;;5071088;28;20063;-44
2022/04/04 02:54:30;;;;;;;14.52;6.50;;;4.00;99.90;;;;;;5070586;28;20063;-48
2022/04/04 02:56:56;;;;;;;9.85;5.03;;;4.00;99.90;;;;;;5069708;28;20481;-46
2022/04/04 02:59:22;;;;;;;10.82;6.28;;;4.10;99.90;;;;;;5069851;28;20044;-46
2022/04/04 03:01:50;;;;;;;10.55;6.13;;;4.10;99.90;;;;;;5069962;28;20040;-41
2022/04/04 03:04:16;;;;;;;13.80;7.43;;;4.10;99.90;;;;;;5072679;28;20138;-44
2022/04/04 03:06:42;;;;;;;12.20;7.05;;;4.10;99.90;;;;;;5069484;28;20040;-44
2022/04/04 03:09:08;;;;;;;11.95;6.18;;;4.10;99.90;;;;;;5067127;28;20130;-47
2022/04/04 03:11:33;;;;;;;10.70;5.85;;;4.20;99.90;;;;;;5072721;28;20196;-39
2022/04/04 03:13:59;;;;;;;12.15;7.05;;;4.20;99.90;;;;;;5073323;28;20508;-45
2022/04/04 03:16:25;;;;;;;12.43;6.70;;;4.20;99.90;;;;;;5066919;28;20044;-40
2022/04/04 03:18:54;;;;;;;12.88;6.93;;;4.20;99.90;;;;;;5071900;28;20040;-43
2022/04/04 03:21:20;;;;;;;12.30;6.50;;;4.20;99.90;;;;;;5071200;28;20460;-47
2022/04/04 03:23:46;;;;;;;14.10;6.35;;;4.20;99.90;;;;;;5067466;28;20045;-46
2022/04/04 03:26:12;;;;;;;17.60;7.45;;;4.20;99.90;;;;;;5067767;28;20029;-47
2022/04/04 03:28:38;;;;;;;13.48;6.80;;;4.30;99.90;;;;;;5068524;28;20503;-40
2022/04/04 03:31:05;;;;;;;8.95;5.68;;;4.30;99.90;;;;;;5069852;28;20041;-43
2022/04/04 03:33:35;;;;;;;13.80;6.50;;;4.30;99.90;;;;;;5066505;28;20156;-47
2022/04/04 03:36:01;;;;;;;12.90;7.32;;;4.30;99.90;;;;;;5069116;28;20127;-43
2022/04/04 03:38:27;;;;;;;12.82;6.03;;;4.30;99.90;;;;;;5064984;28;20115;-46
2022/04/04 03:40:53;;;;;;;10.68;5.50;;;4.30;99.90;;;;;;5065959;28;20052;-47
2022/04/04 03:43:19;;;;;;;9.75;5.97;;;4.40;99.90;;;;;;5059796;28;20583;-43
2022/04/04 03:45:46;;;;;;;11.75;6.47;;;4.40;99.90;;;;;;5066680;28;20071;-43
2022/04/04 03:48:12;;;;;;;10.43;6.20;;;4.40;99.90;;;;;;5080075;28;20044;-43
2022/04/04 03:50:38;;;;;;;13.18;6.60;;;4.40;99.90;;;;;;5068183;28;20032;-45
2022/04/04 03:53:06;;;;;;;14.38;6.38;;;4.50;99.90;;;;;;5077320;28;20119;-42
2022/04/04 03:55:36;;;;;;;12.27;6.45;;;4.50;99.90;;;;;;5063266;28;20071;-44
2022/04/04 03:58:02;;;;;;;11.27;6.25;;;4.50;99.90;;;;;;5064804;28;20044;-45
2022/04/04 04:00:29;;;;;;;11.27;5.57;;;4.50;99.90;;;;;;5065504;28;20036;-42
2022/04/04 04:02:55;;;;;;;10.02;5.88;;;4.50;99.90;;;;;;5067747;28;20064;-46
2022/04/04 04:05:21;;;;;;;12.13;6.80;;;4.50;99.90;;;;;;5068340;28;20052;-44
2022/04/04 04:07:48;;;;;;;11.23;6.13;;;4.60;99.90;;;;;;5068133;28;20067;-42
2022/04/04 04:10:13;;;;;;;11.82;6.35;;;4.60;99.90;;;;;;5065545;28;20404;-48
2022/04/04 04:12:40;;;;;;;11.30;6.75;;;4.60;99.90;;;;;;5062544;28;20032;-48
2022/04/04 04:15:11;;;;;;;9.80;6.53;;;4.60;99.90;;;;;;5071926;28;20094;-46
2022/04/04 04:17:38;;;;;;;12.23;5.05;;;4.70;99.90;;;;;;5068903;28;20032;-40
2022/04/04 04:20:19;;;;;;;9.45;5.30;;;4.70;99.90;;;;;;5073624;28;20114;-47
2022/04/04 04:22:52;;;;;;;11.55;6.38;;;4.70;99.90;;;;;;5066303;28;20082;-42
2022/04/04 04:25:18;;;;;;;;;;;4.80;99.90;;;;;;5065430;28;20416;-47
2022/04/04 04:27:45;;;;;;;11.80;4.30;;;4.80;99.90;;;;;;5061621;28;19923;-48
2022/04/04 04:30:13;;;;;;;11.32;6.60;;;4.80;99.90;;;;;;5071578;28;20393;-45
2022/04/04 04:32:42;;;;;;;11.18;6.00;;;4.80;99.90;;;;;;5069713;28;20464;-42
2022/04/04 04:35:08;;;;;;;11.02;5.43;;;4.80;99.90;;;;;;5066576;28;20032;-46
2022/04/04 04:37:34;;;;;;;12.30;7.70;;;4.80;99.90;;;;;;5070389;28;20408;-48
2022/04/04 04:40:00;;;;;;;13.88;7.55;;;4.80;99.90;;;;;;5066593;28;20036;-45
2022/04/04 04:42:26;;;;;;;13.00;7.32;;;4.90;99.90;;;;;;5070394;28;20038;-49
2022/04/04 04:44:52;;;;;;;14.35;7.13;;;4.90;99.90;;;;;;5066109;28;20032;-46
2022/04/04 04:47:18;;;;;;;9.00;6.10;;;4.90;99.90;;;;;;5065234;28;20116;-46
2022/04/04 04:49:45;;;;;;;11.25;6.60;;;4.90;99.90;;;;;;5074718;28;20052;-49
2022/04/04 04:52:11;;;;;;;12.48;7.85;;;4.90;99.90;;;;;;5069875;28;20044;-48
2022/04/04 04:54:37;;;;;;;10.35;5.75;;;5.00;99.90;;;;;;5075273;28;20389;-46
2022/04/04 04:57:03;;;;;;;10.88;6.25;;;4.90;99.90;;;;;;5073058;28;20048;-45
2022/04/04 04:59:29;;;;;;;10.30;4.78;;;4.90;99.90;;;;;;5074130;28;20032;-47
2022/04/04 05:01:54;;;;;;;8.02;5.30;;;5.00;99.90;;;;;;5066814;28;20043;-43
2022/04/04 05:04:20;;;;;;;12.35;7.60;;;5.00;99.90;;;;;;5067513;28;20125;-46
2022/04/04 05:06:49;;;;;;;11.65;6.53;;;5.00;99.90;;;;;;5070298;28;20360;-41
2022/04/04 05:09:18;;;;;;;11.15;6.95;;;5.00;99.90;;;;;;5063056;28;20067;-42
2022/04/04 05:11:44;;;;;;;13.18;7.43;;;5.00;99.90;;;;;;5064576;28;20075;-46
2022/04/04 05:14:15;;;;;;;15.15;6.82;;;5.00;99.90;;;;;;5066968;28;20036;-47
2022/04/04 05:16:45;;;;;;;9.90;6.22;;;5.00;99.90;;;;;;5067021;28;20102;-44
2022/04/04 05:19:19;;;;;;;9.95;7.00;;;5.10;99.90;;;;;;5065943;28;20474;-45
2022/04/04 05:21:45;;;;;;;12.70;6.35;;;5.10;99.90;;;;;;5061942;28;20072;-45
2022/04/04 05:24:11;;;;;;;14.00;7.05;;;5.10;99.90;;;;;;5067234;28;20515;-42
2022/04/04 05:26:37;;;;;;;12.27;6.30;;;5.10;99.90;;;;;;5066165;28;20098;-41
2022/04/04 05:29:03;;;;;;;12.32;6.65;;;5.20;99.90;;;;;;5061838;28;20028;-49
2022/04/04 05:31:32;;;;;;;10.35;5.60;;;5.20;99.90;;;;;;5071262;28;20068;-44
2022/04/04 05:33:59;;;;;;;8.10;5.78;;;5.20;99.90;;;;;;5065471;28;20370;-44
2022/04/04 05:36:28;;;;;;;10.35;5.90;;;5.30;99.90;;;;;;5083599;28;20047;-46
2022/04/04 05:38:55;;;;;;;11.07;5.55;;;5.20;99.90;;;;;;5069035;28;20082;-45
2022/04/04 05:41:21;;;;;;;11.65;5.95;;;5.20;99.90;;;;;;5062665;28;20139;-41
2022/04/04 05:43:47;;;;;;;7.50;5.05;;;5.20;99.90;;;;;;5068817;28;20044;-48
2022/04/04 05:46:14;;;;;;;8.05;4.75;;;5.20;99.90;;;;;;5065754;28;20048;-44
2022/04/04 05:48:40;;;;;;;12.10;5.53;;;5.20;99.90;;;;;;5070219;28;20525;-42
2022/04/04 05:51:05;;;;;;;9.65;4.75;;;5.20;99.90;;;;;;5071045;28;20036;-46
2022/04/04 05:53:31;;;;;;;10.02;5.28;;;5.20;99.90;;;;;;5066634;28;20131;-43
2022/04/04 05:55:57;;;;;;;10.43;5.32;;;5.20;99.90;;;;;;5047745;28;20052;-46
2022/04/04 05:58:23;;;;;;;10.70;6.13;;;5.20;99.90;;;;;;5067434;28;20072;-45
2022/04/04 06:00:48;;;;;;;8.90;5.50;;;5.20;99.90;;;;;;5061434;28;20477;-48
2022/04/04 06:03:14;;;;;;;9.73;6.47;;;5.20;99.90;;;;;;5060016;28;20075;-52
2022/04/04 06:05:41;;;;;;;9.13;5.20;;;5.20;99.90;;;;;;5065376;28;20523;-46
2022/04/04 06:08:07;;;;;;;11.05;6.43;;;5.20;99.90;;;;;;5067590;28;20472;-42
2022/04/04 06:10:33;;;;;;;9.13;5.53;;;5.20;99.90;;;;;;5063773;28;20397;-45
2022/04/04 06:12:59;;;;;;;10.02;6.15;;;5.20;99.90;;;;;;5064309;28;20045;-47
2022/04/04 06:15:24;;;;;;;8.77;5.68;;;5.30;99.90;;;;;;5083376;28;20532;-44
2022/04/04 06:17:50;;;;;;;9.60;5.68;;;5.30;99.90;;;;;;5068898;28;20033;-48
2022/04/04 06:20:16;;;;;;;14.30;6.10;;;5.30;99.90;;;;;;5074548;28;20097;-40
2022/04/04 06:22:42;;;;;;;10.75;5.45;;;5.30;99.90;;;;;;5065332;28;20494;-45
2022/04/04 06:25:12;;;;;;;13.30;5.90;;;5.30;99.90;;;;;;5067988;28;20063;-48
2022/04/04 06:27:39;;;;;;;10.65;4.93;;;5.20;99.90;;;;;;5062658;28;20056;-41
2022/04/04 06:30:06;;;;;;;10.30;6.00;;;5.20;99.90;;;;;;5062478;28;20094;-46
2022/04/04 06:32:33;;;;;;;11.95;5.80;;;5.20;99.90;;;;;;5060981;28;20036;-43
2022/04/04 06:34:59;;;;;;;12.48;6.22;;;5.20;99.90;;;;;;5059895;28;20033;-44
2022/04/04 06:37:24;;;;;;;11.43;5.68;;;5.20;99.90;;;;;;5072247;28;20089;-44
2022/04/04 06:39:50;;;;;;;9.75;4.97;;;5.30;99.90;;;;;;5065321;28;20063;-50
2022/04/04 06:42:16;;;;;;;12.52;6.47;;;5.20;99.90;;;;;;5084384;28;20496;-48
2022/04/04 06:44:42;;;;;;;11.43;5.72;;;5.20;99.90;;;;;;5072057;28;20546;-42
2022/04/04 06:47:09;;;;;;;11.73;5.82;;;5.20;99.90;;;;;;5066322;28;20040;-49
2022/04/04 06:49:35;;;;;;;9.32;5.50;;;5.20;99.90;;;;;;5070297;28;20637;-40
2022/04/04 06:52:01;;;;;;;11.43;6.53;;;5.30;99.90;;;;;;5064387;28;20033;-50
2022/04/04 06:54:27;;;;;;;11.68;6.13;;;5.20;99.90;;;;;;5073125;28;20489;-46
2022/04/04 06:56:55;;;;;;;10.57;6.50;;;5.30;99.90;;;;;;5072379;28;20507;-48
2022/04/04 06:59:21;;;;;;;12.57;7.10;;;5.30;99.90;;;;;;5073173;28;20082;-50
2022/04/04 07:01:49;;;;;;;13.40;6.35;;;5.30;99.90;;;;;;5069660;28;20515;-44
2022/04/04 07:04:16;;;;;;;13.00;7.93;;;5.20;99.90;;;;;;5072423;28;20044;-47
2022/04/04 07:06:41;;;;;;;12.32;6.70;;;5.20;99.90;;;;;;5067815;28;20602;-46
2022/04/04 07:09:08;;;;;;;10.02;6.88;;;5.20;99.90;;;;;;5065529;28;20070;-43
2022/04/04 07:11:35;;;;;;;11.85;6.63;;;5.20;99.90;;;;;;5076221;28;20040;-50
2022/04/04 07:14:02;;;;;;;15.85;8.25;;;5.20;99.90;;;;;;5070134;28;20083;-49
2022/04/04 07:16:32;;;;;;;12.43;6.78;;;5.20;99.90;;;;;;5066415;28;20489;-50
2022/04/04 07:18:57;;;;;;;14.05;9.07;;;5.20;99.90;;;;;;5065691;28;20040;-43
2022/04/04 07:21:23;;;;;;;12.20;8.68;;;5.20;99.90;;;;;;5068815;28;20106;-49
2022/04/04 07:23:50;;;;;;;16.45;7.78;;;5.20;99.90;;;;;;5071402;28;20475;-42
2022/04/04 07:26:19;;;;;;;13.55;8.52;;;5.20;99.90;;;;;;5075069;28;20032;-48
2022/04/04 07:28:47;;;;;;;15.10;8.55;;;5.20;99.90;;;;;;5066093;28;20025;-41
2022/04/04 07:31:17;;;;;;;16.00;9.18;;;5.20;99.90;;;;;;5068817;28;20440;-47
2022/04/04 07:33:42;;;;;;;12.90;7.40;;;5.20;99.90;;;;;;5070833;28;20143;-47
2022/04/04 07:36:10;;;;;;;15.88;9.30;;;5.20;99.90;;;;;;5065999;28;20556;-47
2022/04/04 07:38:36;;;;;;;13.65;8.63;;;5.30;99.90;;;;;;5073556;28;20041;-49
2022/04/04 07:41:02;;;;;;;13.88;9.32;;;5.30;99.90;;;;;;5067055;28;20046;-50
2022/04/04 07:43:28;;;;;;;14.02;9.02;;;5.30;99.90;;;;;;5065936;28;20401;-44
2022/04/04 07:45:53;;;;;;;12.57;7.95;;;5.30;99.90;;;;;;5084206;28;20433;-43
2022/04/04 07:48:19;;;;;;;15.35;9.70;;;5.30;99.90;;;;;;5068209;28;20495;-46
2022/04/04 07:50:45;;;;;;;16.77;9.27;;;5.30;99.90;;;;;;5069464;28;20545;-51
2022/04/04 07:53:11;;;;;;;14.98;9.15;;;5.30;99.90;;;;;;5065596;28;20653;-50
2022/04/04 07:55:37;;;;;;;14.50;7.93;;;5.30;99.90;;;;;;5063688;28;20049;-50
2022/04/04 07:58:04;;;;;;;12.55;9.43;;;5.30;99.90;;;;;;5065052;28;20040;-51
2022/04/04 08:00:29;;;;;;;12.05;8.15;;;5.40;99.90;;;;;;5068896;28;20044;-51
2022/04/04 08:02:55;;;;;;;12.90;7.72;;;5.40;99.90;;;;;;5072953;28;20048;-46
2022/04/04 08:05:23;;;;;;;15.38;8.13;;;5.40;99.90;;;;;;5072260;28;20056;-48
2022/04/04 08:07:49;;;;;;;12.50;8.13;;;5.40;99.90;;;;;;5057086;28;20120;-51
2022/04/04 08:10:18;;;;;;;10.98;7.22;;;5.50;99.90;;;;;;5069621;28;20672;-48
2022/04/04 08:12:45;;;;;;;16.60;6.75;;;5.50;99.90;;;;;;5084140;28;20090;-46
2022/04/04 08:15:10;;;;;;;13.02;8.73;;;5.50;99.90;;;;;;5073691;28;20504;-50
2022/04/04 08:17:37;;;;;;;11.85;6.43;;;5.50;99.90;;;;;;5063392;28;20064;-48
2022/04/04 08:20:04;;;;;;;15.65;8.25;;;5.50;99.90;;;;;;5067765;28;20123;-46
2022/04/04 08:22:36;;;;;;;10.88;7.63;;;5.50;99.90;;;;;;5068434;28;20039;-51
2022/04/04 08:25:02;;;;;;;13.60;7.38;;;5.50;99.90;;;;;;5066352;28;20485;-48
2022/04/04 08:27:27;;;;;;;17.60;7.85;;;5.50;99.90;;;;;;5068582;28;20047;-49
2022/04/04 08:29:53;;;;;;;12.57;7.63;;;5.50;99.90;;;;;;5061431;28;20086;-47
2022/04/04 08:32:19;;;;;;;13.52;7.78;;;5.50;99.90;;;;;;5064963;28;20474;-47
2022/04/04 08:34:45;;;;;;;12.50;7.70;;;5.50;99.90;;;;;;5063591;28;20077;-49
2022/04/04 08:37:11;;;;;;;12.40;8.70;;;5.60;99.90;;;;;;5066033;28;20044;-44
2022/04/04 08:39:37;;;;;;;10.43;5.90;;;5.60;99.90;;;;;;5062839;28;20094;-50
2022/04/04 08:42:03;;;;;;;10.73;5.30;;;5.60;99.90;;;;;;5071333;28;20147;-48
2022/04/04 08:44:29;;;;;;;12.07;5.80;;;5.60;99.90;;;;;;5069358;28;20484;-52
2022/04/04 08:46:55;;;;;;;10.63;5.22;;;5.60;99.90;;;;;;5046677;28;20036;-45
2022/04/04 08:49:20;;;;;;;7.22;4.03;;;5.60;99.90;;;;;;5067195;28;20078;-44
2022/04/04 08:51:48;;;;;;;9.65;5.97;;;5.60;99.90;;;;;;5066797;28;20552;-51
2022/04/04 08:54:14;;;;;;;12.52;5.70;;;5.70;99.90;;;;;;5069918;28;20042;-51
2022/04/04 08:56:42;;;;;;;5.90;3.83;;;5.60;99.90;;;;;;5061481;28;20044;-49
2022/04/04 08:59:09;;;;;;;8.73;3.72;;;5.60;99.90;;;;;;5077598;28;20488;-46
2022/04/04 09:01:35;;;;;;;6.43;3.33;;;5.50;99.90;;;;;;5070059;28;20482;-51
2022/04/04 09:04:01;;;;;;;6.13;3.00;;;5.50;99.90;;;;;;5070464;28;20056;-46
2022/04/04 09:06:30;;;;;;;6.28;2.63;;;5.50;99.90;;;;;;5081982;28;20397;-50
2022/04/04 09:08:56;;;;;;;4.05;2.45;;;5.50;99.90;;;;;;5077441;28;20382;-53
2022/04/04 09:11:22;;;;;;;5.60;2.28;;;5.50;99.90;;;;;;5073260;28;20054;-52
2022/04/04 09:14:07;;;;;;;4.43;3.00;;;5.50;99.90;;;;;;5067834;28;20115;-50
2022/04/04 09:16:34;;;;;;;6.78;3.25;;;5.50;99.90;;;;;;5077109;28;20085;-53
2022/04/04 09:18:59;;;;;;;5.32;3.78;;;5.50;99.90;;;;;;5072783;28;20040;-53
2022/04/04 09:21:25;;;;;;;6.60;3.95;;;5.50;99.90;;;;;;5078146;28;20028;-51
2022/04/04 09:23:57;;;;;;;5.95;3.72;;;5.50;99.90;;;;;;5078329;28;20028;-52
2022/04/04 09:26:38;;;;;;;6.45;3.55;;;5.50;99.90;;;;;;5069025;28;20093;-51
2022/04/04 09:29:14;;;;;;;6.90;3.13;;;5.60;99.90;;;;;;5072184;28;20055;-51
2022/04/04 09:32:05;;;;;;;6.53;3.58;;;5.50;99.90;;;;;;5067459;28;20505;-53
2022/04/04 09:34:56;;;;;;;7.85;2.83;;;5.60;99.90;;;;;;5064733;28;20029;-51
2022/04/04 09:37:24;;;;;;;4.75;2.70;;;5.60;99.90;;;;;;5083647;28;20492;-49
2022/04/04 09:40:13;;;;;;;4.68;3.08;;;5.60;99.90;;;;;;5083501;28;20069;-45
2022/04/04 09:42:40;;;;;;;6.82;3.00;;;5.50;99.90;;;;;;5067411;28;20067;-49
2022/04/04 09:45:13;;;;;;;8.70;3.13;;;5.50;99.90;;;;;;5069517;28;20036;-47
2022/04/04 09:48:07;;;;;;;7.88;3.72;;;5.60;99.90;;;;;;5081070;28;20049;-48
2022/04/04 09:50:32;;;;;;;5.07;2.78;;;5.60;99.90;;;;;;5069149;28;20076;-50
2022/04/04 09:52:59;;;;;;;6.05;2.63;;;5.60;99.90;;;;;;5068269;28;20129;-45
2022/04/04 09:55:34;;;;;;;6.30;3.13;;;5.60;99.90;;;;;;5062584;28;20543;-50
2022/04/04 09:58:02;;;;;;;5.82;3.00;;;5.60;99.90;;;;;;5065368;28;20032;-48
2022/04/04 10:00:29;;;;;;;6.80;2.78;;;5.60;99.90;;;;;;5062131;28;20083;-47
2022/04/04 10:02:57;;;;;;;6.47;2.50;;;5.70;99.90;;;;;;5071255;28;20051;-51
2022/04/04 10:05:26;;;;;;;6.10;3.65;;;5.60;99.90;;;;;;5065442;28;20048;-45
2022/04/04 10:07:56;;;;;;;4.93;2.50;;;5.70;99.90;;;;;;5063607;28;20040;-51
2022/04/04 10:10:26;;;;;;;8.73;3.25;;;5.70;99.90;;;;;;5070266;28;20039;-45
2022/04/04 10:12:53;;;;;;;4.50;2.97;;;5.70;99.90;;;;;;5073620;28;20047;-51
2022/04/04 10:15:20;;;;;;;7.80;3.20;;;5.80;99.90;;;;;;5077339;28;20052;-48
2022/04/04 10:17:46;;;;;;;5.72;2.70;;;5.80;99.90;;;;;;5070276;28;20033;-51
2022/04/04 10:20:12;;;;;;;7.32;4.13;;;5.80;99.90;;;;;;5071981;28;20036;-46
2022/04/04 10:22:38;;;;;;;5.97;3.13;;;5.80;99.90;;;;;;5065857;28;20032;-48
2022/04/04 10:25:07;;;;;;;5.70;3.35;;;5.80;99.90;;;;;;5064254;28;20041;-45
2022/04/04 10:27:34;;;;;;;7.38;3.17;;;5.90;99.90;;;;;;5068310;28;20044;-49
2022/04/04 10:30:05;;;;;;;6.53;2.85;;;5.90;99.90;;;;;;5071636;28;20137;-46
2022/04/04 10:32:32;;;;;;;6.55;3.17;;;5.90;99.90;;;;;;5065578;28;20037;-45
2022/04/04 10:35:07;;;;;;;6.93;3.60;;;6.00;99.90;;;;;;5068115;28;20528;-49
2022/04/04 10:37:44;;;;;;;8.48;4.22;;;6.00;99.90;;;;;;5068223;28;20557;-47
2022/04/04 10:40:24;;;;;;;6.30;2.63;;;6.00;99.90;;;;;;5074868;28;20556;-50
2022/04/04 10:43:12;;;;;;;7.15;3.33;;;6.10;99.90;;;;;;5070792;28;20055;-50
2022/04/04 10:45:55;;;;;;;6.43;2.60;;;6.20;99.90;;;;;;5069450;28;20485;-48
2022/04/04 10:48:30;;;;;;;6.53;3.40;;;6.20;99.90;;;;;;5070743;28;20032;-44
2022/04/04 10:51:17;;;;;;;4.35;2.42;;;6.30;99.90;;;;;;5069032;28;20033;-50
2022/04/04 10:53:55;;;;;;;7.18;3.63;;;6.40;99.90;;;;;;5066732;28;20505;-49
2022/04/04 10:56:27;;;;;;;5.10;2.80;;;6.40;99.90;;;;;;5068763;28;21590;-49
2022/04/04 10:59:14;;;;;;;6.50;3.30;;;6.40;99.90;;;;;;5074000;28;20047;-50
2022/04/04 11:01:47;;;;;;;5.00;2.80;;;6.40;99.90;;;;;;5059712;28;20505;-47
2022/04/04 11:04:36;;;;;;;6.30;2.45;;;6.50;99.90;;;;;;5066753;28;20064;-51
2022/04/04 11:09:57;;;;;;;3.28;1.73;;;6.50;99.90;;;;;;5068749;28;20033;-46
2022/04/04 11:12:29;;;;;;;6.28;2.85;;;6.50;99.90;;;;;;5089071;28;20035;-50
2022/04/04 11:15:06;;;;;;;4.32;2.22;;;6.50;99.90;;;;;;5072945;28;20100;-49
2022/04/04 11:17:38;;;;;;;5.85;2.47;;;6.60;99.90;;;;;;5071039;28;20393;-52
2022/04/04 11:20:21;;;;;;;4.47;1.63;;;6.60;99.90;;;;;;5067599;28;20467;-51
2022/04/04 11:22:53;;;;;;;6.45;2.25;;;6.60;99.90;;;;;;5068557;28;20119;-50
2022/04/04 11:25:20;;;;;;;5.07;2.67;;;6.60;99.90;;;;;;5082657;28;20044;-51
2022/04/04 11:27:50;;;;;;;4.75;2.63;;;6.70;99.90;;;;;;5067870;28;20043;-47
2022/04/04 11:30:21;;;;;;;5.22;1.77;;;6.70;99.90;;;;;;5066533;28;20037;-47
2022/04/04 11:32:49;;;;;;;3.38;2.00;;;6.80;99.90;;;;;;5070735;28;20512;-50
2022/04/04 11:35:25;;;;;;;4.57;2.28;;;6.80;99.90;;;;;;5086175;28;20036;-50
2022/04/04 11:37:55;;;;;;;9.20;2.35;;;6.80;99.90;;;;;;5070338;28;20033;-50
2022/04/04 11:40:29;;;;;;;6.25;2.13;;;6.80;99.90;;;;;;5068879;28;20093;-49
2022/04/04 11:42:57;;;;;;;5.65;2.40;;;6.80;99.90;;;;;;5064740;28;20064;-47
2022/04/04 11:45:25;;;;;;;5.95;2.70;;;6.80;99.90;;;;;;5066532;28;20382;-50
2022/04/04 11:48:02;;;;;;;4.78;1.48;;;6.80;99.90;;;;;;5072647;28;20557;-50
2022/04/04 11:50:30;;;;;;;4.93;2.40;;;6.80;99.90;;;;;;5068815;28;20722;-50
2022/04/04 11:53:02;;;;;;;5.15;2.10;;;6.80;99.90;;;;;;5073336;28;20050;-48
2022/04/04 11:55:31;;;;;;;4.22;2.30;;;6.90;99.90;;;;;;5061169;28;20832;-50
2022/04/04 11:58:00;;;;;;;3.63;1.85;;;6.90;99.90;;;;;;5068599;28;20426;-50
2022/04/04 12:00:32;;;;;;;4.13;2.28;;;6.90;99.90;;;;;;5067299;28;20044;-50
2022/04/04 12:03:10;;;;;;;4.57;2.03;;;7.00;99.90;;;;;;5071426;28;20061;-51
2022/04/04 12:05:49;;;;;;;3.45;1.38;;;7.00;99.90;;;;;;5085809;28;20048;-51
2022/04/04 12:08:26;;;;;;;3.13;1.58;;;7.00;99.90;;;;;;5072352;28;20044;-47
2022/04/04 12:10:52;;;;;;;5.15;1.85;;;7.00;99.90;;;;;;5071221;28;20450;-50
2022/04/04 12:13:22;;;;;;;3.80;1.60;;;7.10;99.90;;;;;;5066724;28;20040;-49
2022/04/04 12:15:51;;;;;;;5.50;1.92;;;7.10;99.90;;;;;;5068786;28;20066;-51
2022/04/04 12:18:25;;;;;;;4.18;1.70;;;7.00;99.90;;;;;;5073202;28;20032;-49
2022/04/04 12:20:52;;;;;;;3.53;1.65;;;7.10;99.90;;;;;;5070572;28;20424;-50
2022/04/04 12:26:10;;;;;;;2.22;1.17;;;7.10;99.90;;;;;;5067744;28;20044;-49
2022/04/04 12:28:42;;;;;;;2.13;0.98;;;7.10;99.90;;;;;;5063915;28;20047;-49
2022/04/04 12:31:18;;;;;;;2.97;1.50;;;7.10;99.90;;;;;;5059436;28;20037;-50
2022/04/04 12:33:44;;;;;;;2.97;1.30;;;7.20;99.90;;;;;;5065428;28;20047;-50
2022/04/04 12:36:10;;;;;;;3.15;0.93;;;7.10;99.90;;;;;;5078554;28;20111;-46
2022/04/04 12:38:38;;;;;;;4.65;1.25;;;7.20;99.90;;;;;;5073862;28;20131;-50
2022/04/04 12:41:21;;;;;;;4.40;1.63;;;7.20;99.90;;;;;;5063437;28;20115;-48
2022/04/04 12:44:01;;;;;;;2.55;1.02;;;7.30;99.90;;;;;;5063527;28;20140;-48
2022/04/04 12:46:30;;;;;;;2.75;1.40;;;7.30;99.90;;;;;;5064841;28;20041;-50
2022/04/04 12:49:08;;;;;;;1.20;0.98;;;7.30;99.90;;;;;;5057192;28;20067;-50
2022/04/04 12:51:34;;;;;;;3.88;1.10;;;7.30;99.90;;;;;;5066161;28;20029;-46
2022/04/04 12:54:03;;;;;;;2.47;1.30;;;7.40;99.90;;;;;;5068724;28;20051;-47
2022/04/04 12:56:33;;;;;;;2.90;1.10;;;7.40;99.90;;;;;;5066073;28;20044;-50
2022/04/04 12:59:07;;;;;;;2.13;0.88;;;7.40;99.90;;;;;;5064119;28;20036;-45
2022/04/04 13:01:33;;;;;;;2.95;1.10;;;7.40;99.90;;;;;;5068408;28;20036;-46
2022/04/04 13:03:59;;;;;;;2.05;0.77;;;7.50;99.90;;;;;;5071076;28;20493;-48
2022/04/04 13:06:33;;;;;;;1.60;0.80;;;7.50;99.90;;;;;;5060592;28;20567;-41